createdAt,value
2022-09-01T00:01:24.357Z,10.30
2022-09-01T00:03:53.142Z,9.57
2022-09-01T00:06:22.812Z,9.47
2022-09-01T00:08:53.926Z,9.57
2022-09-01T00:11:21.915Z,9.40
2022-09-01T00:13:49.883Z,8.93
2022-09-01T00:16:19.929Z,9.73
2022-09-01T00:18:50.704Z,9.13
2022-09-01T00:21:19.050Z,9.67
2022-09-01T00:23:46.782Z,10.00
2022-09-01T00:26:14.279Z,10.30
2022-09-01T00:28:41.964Z,10.20
2022-09-01T00:31:11.169Z,9.47
2022-09-01T00:33:38.967Z,10.33
2022-09-01T00:36:06.540Z,9.50
2022-09-01T00:38:34.130Z,9.80
2022-09-01T00:41:01.422Z,9.43
2022-09-01T00:44:02.900Z,9.27
2022-09-01T00:46:33.618Z,8.53
2022-09-01T00:49:08.970Z,9.10
2022-09-01T00:51:38.563Z,9.80
2022-09-01T00:54:08.838Z,9.43
2022-09-01T00:56:39.551Z,9.30
2022-09-01T00:59:09.261Z,8.90
2022-09-01T01:01:36.901Z,9.43
2022-09-01T01:04:06.444Z,10.53
2022-09-01T01:06:33.660Z,9.47
2022-09-01T01:09:01.447Z,9.13
2022-09-01T01:11:32.443Z,10.60
2022-09-01T01:14:12.178Z,9.80
2022-09-01T01:16:45.185Z,10.97
2022-09-01T01:20:11.347Z,11.37
2022-09-01T01:23:13.798Z,11.13
2022-09-01T01:25:54.651Z,11.00
2022-09-01T01:28:27.096Z,10.73
2022-09-01T01:31:01.862Z,11.53
2022-09-01T01:33:33.885Z,10.77
2022-09-01T01:36:01.920Z,11.67
2022-09-01T01:38:30.532Z,11.37
2022-09-01T01:41:00.141Z,11.17
2022-09-01T01:43:29.084Z,10.73
2022-09-01T01:46:02.872Z,12.13
2022-09-01T01:48:40.584Z,12.37
2022-09-01T01:51:10.633Z,12.53
2022-09-01T01:53:38.483Z,12.97
2022-09-01T01:56:06.373Z,12.90
2022-09-01T01:58:36.161Z,11.60
2022-09-01T02:01:10.860Z,11.83
2022-09-01T02:03:38.895Z,12.07
2022-09-01T02:06:09.692Z,13.03
2022-09-01T02:08:38.396Z,11.53
2022-09-01T02:11:07.269Z,12.63
2022-09-01T02:13:35.167Z,13.70
2022-09-01T02:16:07.758Z,12.37
2022-09-01T02:18:37.665Z,12.77
2022-09-01T02:21:15.053Z,12.43
2022-09-01T02:23:43.555Z,12.00
2022-09-01T02:26:16.671Z,13.43
2022-09-01T02:28:50.895Z,12.50
2022-09-01T02:31:22.177Z,12.43
2022-09-01T02:33:49.203Z,10.97
2022-09-01T02:36:17.914Z,11.63
2022-09-01T02:38:53.322Z,11.50
2022-09-01T02:41:25.185Z,10.70
2022-09-01T02:43:52.679Z,12.17
2022-09-01T02:46:24.328Z,11.07
2022-09-01T02:48:53.206Z,11.40
2022-09-01T02:51:23.787Z,11.93
2022-09-01T02:53:52.955Z,11.20
2022-09-01T02:56:25.065Z,11.53
2022-09-01T02:58:53.901Z,11.97
2022-09-01T03:01:32.756Z,12.17
2022-09-01T03:04:05.957Z,11.33
2022-09-01T03:06:34.695Z,10.90
2022-09-01T03:09:03.940Z,10.97
2022-09-01T03:11:32.948Z,11.63
2022-09-01T03:14:00.799Z,11.97
2022-09-01T03:16:30.549Z,12.50
2022-09-01T03:18:58.304Z,13.47
2022-09-01T03:21:26.170Z,14.60
2022-09-01T03:23:53.927Z,15.00
2022-09-01T03:26:22.537Z,14.47
2022-09-01T03:28:52.160Z,15.07
2022-09-01T03:31:20.458Z,15.43
2022-09-01T03:33:51.184Z,17.00
2022-09-01T03:36:27.739Z,15.73
2022-09-01T03:38:56.968Z,16.10
2022-09-01T03:41:28.523Z,16.20
2022-09-01T03:43:58.296Z,16.50
2022-09-01T03:46:34.474Z,17.80
2022-09-01T03:49:07.551Z,18.07
2022-09-01T03:51:40.896Z,19.40
2022-09-01T03:54:09.431Z,17.90
2022-09-01T03:56:41.712Z,19.37
2022-09-01T03:59:17.383Z,18.50
2022-09-01T04:01:46.498Z,18.77
2022-09-01T04:04:15.011Z,18.23
2022-09-01T04:06:44.274Z,18.27
2022-09-01T04:09:11.643Z,18.37
2022-09-01T04:11:45.886Z,17.10
2022-09-01T04:14:15.349Z,17.80
2022-09-01T04:17:02.627Z,15.60
2022-09-01T04:19:33.087Z,17.07
2022-09-01T04:22:01.208Z,16.10
2022-09-01T04:24:46.198Z,17.30
2022-09-01T04:27:15.077Z,16.80
2022-09-01T04:29:42.987Z,16.33
2022-09-01T04:32:13.096Z,17.87
2022-09-01T04:34:43.439Z,15.90
2022-09-01T04:37:18.342Z,16.93
2022-09-01T04:39:55.789Z,16.13
2022-09-01T04:42:27.314Z,15.60
2022-09-01T04:44:57.643Z,15.57
2022-09-01T04:47:35.478Z,14.70
2022-09-01T04:50:13.800Z,15.93
2022-09-01T04:52:45.271Z,15.57
2022-09-01T04:55:24.829Z,15.10
2022-09-01T04:57:52.457Z,15.53
2022-09-01T05:00:24.578Z,16.33
2022-09-01T05:03:04.550Z,15.83
2022-09-01T05:05:54.228Z,15.47
2022-09-01T05:08:24.593Z,14.83
2022-09-01T05:10:55.906Z,14.80
2022-09-01T05:13:41.508Z,15.03
2022-09-01T05:16:15.152Z,14.67
2022-09-01T05:18:47.749Z,14.10
2022-09-01T05:21:19.925Z,14.47
2022-09-01T05:23:50.562Z,15.23
2022-09-01T05:26:25.030Z,14.93
2022-09-01T05:28:56.922Z,15.27
2022-09-01T05:31:28.196Z,14.03
2022-09-01T05:33:58.316Z,14.17
2022-09-01T05:36:26.848Z,13.67
2022-09-01T05:38:57.135Z,14.63
2022-09-01T05:41:24.727Z,14.47
2022-09-01T05:43:59.385Z,13.57
2022-09-01T05:46:28.533Z,12.83
2022-09-01T05:48:58.624Z,13.00
2022-09-01T05:51:46.331Z,13.07
2022-09-01T05:54:21.565Z,13.17
2022-09-01T05:56:49.755Z,13.83
2022-09-01T05:59:23.018Z,13.13
2022-09-01T06:01:53.473Z,12.50
2022-09-01T06:04:22.373Z,13.73
2022-09-01T06:07:07.855Z,13.23
2022-09-01T06:09:42.045Z,12.73
2022-09-01T06:12:17.644Z,13.30
2022-09-01T06:14:46.723Z,12.60
2022-09-01T06:17:16.840Z,14.27
2022-09-01T06:19:44.528Z,13.60
2022-09-01T06:22:11.773Z,12.20
2022-09-01T06:24:43.508Z,12.07
2022-09-01T06:27:12.542Z,12.03
2022-09-01T06:29:40.007Z,11.63
2022-09-01T06:32:12.766Z,10.47
2022-09-01T06:34:42.731Z,11.23
2022-09-01T06:37:11.091Z,12.23
2022-09-01T06:39:38.392Z,12.87
2022-09-01T06:42:06.787Z,11.43
2022-09-01T06:44:46.523Z,11.37
2022-09-01T06:47:15.645Z,11.00
2022-09-01T06:49:43.057Z,12.00
2022-09-01T06:52:16.180Z,11.13
2022-09-01T06:54:44.313Z,10.63
2022-09-01T07:00:00.369Z,11.37
2022-09-01T07:06:01.317Z,10.47
2022-09-01T07:12:25.127Z,10.80
2022-09-01T07:17:42.549Z,11.13
2022-09-01T07:20:27.193Z,10.67
2022-09-01T07:23:05.783Z,10.97
2022-09-01T07:28:37.827Z,11.53
2022-09-01T07:39:52.169Z,10.57
2022-09-01T07:42:59.309Z,11.10
2022-09-01T07:43:12.843Z,9.87
2022-09-01T07:49:03.443Z,8.57
2022-09-01T07:51:51.873Z,9.50
2022-09-01T07:54:24.072Z,8.93
2022-09-01T07:56:51.923Z,7.27
2022-09-01T07:59:21.369Z,7.53
2022-09-01T08:02:06.022Z,6.30
2022-09-01T08:04:34.424Z,5.33
2022-09-01T08:07:01.811Z,5.77
2022-09-01T08:09:38.016Z,5.60
2022-09-01T08:12:08.315Z,6.23
2022-09-01T08:14:41.834Z,6.40
2022-09-01T08:17:33.094Z,7.37
2022-09-01T08:19:59.241Z,7.10
2022-09-01T08:22:55.662Z,6.70
2022-09-01T08:25:26.272Z,7.17
2022-09-01T08:28:01.931Z,5.67
2022-09-01T08:30:32.519Z,5.97
2022-09-01T08:33:10.112Z,6.37
2022-09-01T08:35:40.101Z,6.03
2022-09-01T08:38:07.792Z,5.80
2022-09-01T08:40:35.402Z,6.40
2022-09-01T08:43:48.929Z,6.37
2022-09-01T08:46:35.173Z,6.70
2022-09-01T08:49:24.617Z,5.43
2022-09-01T08:52:32.940Z,5.10
2022-09-01T08:55:28.109Z,4.47
2022-09-01T08:57:59.837Z,5.10
2022-09-01T09:01:01.378Z,5.13
2022-09-01T09:03:49.605Z,5.20
2022-09-01T09:06:30.781Z,5.87
2022-09-01T09:09:06.201Z,4.93
2022-09-01T09:12:27.175Z,4.60
2022-09-01T09:15:09.869Z,5.20
2022-09-01T09:17:47.617Z,5.20
2022-09-01T09:20:14.762Z,5.50
2022-09-01T09:22:43.094Z,4.67
2022-09-01T09:25:17.471Z,4.60
2022-09-01T09:28:00.564Z,4.97
2022-09-01T09:30:30.100Z,5.30
2022-09-01T09:33:46.671Z,4.30
2022-09-01T09:35:47.968Z,4.00
2022-09-01T09:38:33.644Z,3.63
2022-09-01T09:44:26.269Z,4.07
2022-09-01T09:46:53.492Z,3.30
2022-09-01T09:49:44.207Z,3.97
2022-09-01T09:52:19.053Z,3.77
2022-09-01T09:55:22.241Z,4.10
2022-09-01T09:57:51.161Z,3.93
2022-09-01T10:00:30.974Z,3.40
2022-09-01T10:03:08.926Z,4.47
2022-09-01T10:05:51.672Z,4.00
2022-09-01T10:08:48.228Z,4.37
2022-09-01T10:11:40.856Z,4.60
2022-09-01T10:14:35.575Z,3.80
2022-09-01T10:17:19.181Z,3.93
2022-09-01T10:20:07.503Z,3.80
2022-09-01T10:22:36.913Z,3.50
2022-09-01T10:25:07.138Z,3.77
2022-09-01T10:27:38.813Z,3.60
2022-09-01T10:30:18.920Z,3.70
2022-09-01T10:32:56.126Z,4.03
2022-09-01T10:35:31.492Z,4.07
2022-09-01T10:38:03.480Z,3.07
2022-09-01T10:40:49.145Z,3.43
2022-09-01T10:43:49.983Z,3.03
2022-09-01T10:46:49.397Z,3.30
2022-09-01T10:49:49.049Z,3.60
2022-09-01T10:53:01.245Z,3.20
2022-09-01T10:55:48.176Z,3.53
2022-09-01T11:05:12.397Z,3.10
2022-09-01T11:10:54.294Z,3.40
2022-09-01T11:13:50.238Z,3.00
2022-09-01T11:16:46.789Z,2.87
2022-09-01T11:19:48.092Z,2.63
2022-09-01T11:22:46.434Z,2.80
2022-09-01T11:25:41.613Z,3.00
2022-09-01T11:28:36.482Z,2.60
2022-09-01T11:31:31.006Z,2.73
2022-09-01T11:34:21.749Z,2.97
2022-09-01T11:36:56.279Z,2.80
2022-09-01T11:39:36.341Z,2.53
2022-09-01T11:42:36.711Z,2.50
2022-09-01T11:45:24.843Z,2.70
2022-09-01T11:48:02.686Z,3.20
2022-09-01T11:50:56.388Z,2.60
2022-09-01T11:53:24.702Z,2.73
2022-09-01T11:55:53.602Z,2.33
2022-09-01T11:58:35.024Z,2.00
2022-09-01T12:01:40.634Z,2.00
2022-09-01T12:04:26.330Z,1.90
2022-09-01T12:06:59.299Z,2.00
2022-09-01T12:09:48.335Z,1.80
2022-09-01T12:12:35.338Z,1.73
2022-09-01T12:15:24.877Z,2.00
2022-09-01T12:17:52.397Z,1.77
2022-09-01T12:20:35.738Z,1.40
2022-09-01T12:23:02.814Z,1.97
2022-09-01T12:25:34.568Z,1.80
2022-09-01T12:28:03.800Z,1.83
2022-09-01T12:30:35.374Z,1.63
2022-09-01T12:36:11.475Z,1.70
2022-09-01T12:38:38.610Z,1.60
2022-09-01T12:41:23.903Z,1.40
2022-09-01T12:43:54.695Z,1.70
2022-09-01T12:46:43.355Z,2.20
2022-09-01T12:49:22.761Z,1.50
2022-09-01T12:51:49.820Z,1.57
2022-09-01T12:54:25.367Z,1.67
2022-09-01T12:56:52.460Z,1.67
2022-09-01T12:59:36.407Z,1.60
2022-09-01T13:02:28.561Z,1.70
2022-09-01T13:04:56.332Z,1.80
2022-09-01T13:07:23.413Z,2.17
2022-09-01T13:09:50.457Z,1.80
2022-09-01T13:12:20.109Z,1.70
2022-09-01T13:14:47.312Z,1.50
2022-09-01T13:17:14.909Z,1.60
2022-09-01T13:19:42.410Z,1.80
2022-09-01T13:22:09.695Z,1.37
2022-09-01T13:24:36.819Z,1.80
2022-09-01T13:27:21.327Z,1.40
2022-09-01T13:29:49.383Z,1.80
2022-09-01T13:32:18.450Z,1.80
2022-09-01T13:34:47.113Z,1.50
2022-09-01T13:37:14.184Z,1.50
2022-09-01T13:39:41.267Z,1.70
2022-09-01T13:42:08.527Z,1.70
2022-09-01T13:44:35.750Z,1.73
2022-09-01T13:50:08.875Z,1.60
2022-09-01T13:52:39.233Z,1.60
2022-09-01T13:55:07.441Z,1.53
2022-09-01T13:57:36.077Z,1.30
2022-09-01T14:00:10.902Z,1.43
2022-09-01T14:02:49.097Z,1.63
2022-09-01T14:05:30.220Z,1.70
2022-09-01T14:07:57.837Z,1.70
2022-09-01T14:10:26.768Z,1.33
2022-09-01T14:12:54.065Z,1.50
2022-09-01T14:15:26.596Z,1.90
2022-09-01T14:17:56.644Z,1.80
2022-09-01T14:20:28.076Z,1.57
2022-09-01T14:22:55.968Z,2.00
2022-09-01T14:25:24.152Z,1.70
2022-09-01T14:27:53.307Z,1.57
2022-09-01T14:30:27.790Z,1.50
2022-09-01T14:32:59.601Z,1.38
2022-09-01T14:35:27.127Z,1.48
2022-09-01T14:37:55.122Z,1.60
2022-09-01T14:40:24.402Z,1.90
2022-09-01T14:42:53.219Z,1.60
2022-09-01T14:45:23.851Z,1.73
2022-09-01T14:47:54.177Z,2.23
2022-09-01T14:50:23.261Z,1.90
2022-09-01T14:52:53.742Z,1.60
2022-09-01T14:55:23.129Z,1.50
2022-09-01T14:57:50.426Z,1.50
2022-09-01T15:00:18.054Z,1.60
2022-09-01T15:02:45.917Z,1.40
2022-09-01T15:05:14.296Z,1.58
2022-09-01T15:07:42.481Z,1.40
2022-09-01T15:10:11.440Z,1.30
2022-09-01T15:12:51.804Z,1.30
2022-09-01T15:15:18.840Z,1.50
2022-09-01T15:17:47.287Z,1.50
2022-09-01T15:20:33.201Z,1.37
2022-09-01T15:23:01.691Z,1.30
2022-09-01T15:25:28.786Z,1.50
2022-09-01T15:27:56.074Z,1.73
2022-09-01T15:30:23.400Z,1.57
2022-09-01T15:32:53.121Z,1.42
2022-09-01T15:35:22.290Z,1.27
2022-09-01T15:37:50.980Z,1.20
2022-09-01T15:40:18.680Z,1.40
2022-09-01T15:42:45.978Z,1.30
2022-09-01T15:45:16.765Z,1.35
2022-09-01T15:47:45.872Z,1.48
2022-09-01T15:50:21.553Z,1.20
2022-09-01T15:53:15.576Z,1.20
2022-09-01T15:55:47.595Z,1.60
2022-09-01T15:58:17.667Z,1.60
2022-09-01T16:00:45.972Z,1.70
2022-09-01T16:03:13.254Z,1.63
2022-09-01T16:05:41.237Z,1.50
2022-09-01T16:08:09.894Z,1.30
2022-09-01T16:10:40.706Z,1.38
2022-09-01T16:13:07.922Z,1.40
2022-09-01T16:15:37.813Z,1.40
2022-09-01T16:18:41.677Z,1.25
2022-09-01T16:21:22.597Z,1.73
2022-09-01T16:23:52.797Z,1.45
2022-09-01T16:26:23.231Z,1.60
2022-09-01T16:28:57.688Z,1.20
2022-09-01T16:31:29.206Z,1.60
2022-09-01T16:34:07.395Z,1.20
2022-09-01T16:37:05.727Z,1.45
2022-09-01T16:40:14.104Z,1.63
2022-09-01T16:42:57.961Z,1.50
2022-09-01T16:46:08.381Z,1.30
2022-09-01T16:49:18.946Z,1.30
2022-09-01T16:52:03.875Z,1.63
2022-09-01T16:54:47.175Z,1.60
2022-09-01T16:57:41.657Z,1.70
2022-09-01T17:00:13.819Z,2.00
2022-09-01T17:03:19.231Z,1.83
2022-09-01T17:06:02.351Z,1.70
2022-09-01T17:08:40.726Z,1.30
2022-09-01T17:11:11.436Z,1.50
2022-09-01T17:13:42.047Z,1.50
2022-09-01T17:16:28.428Z,1.80
2022-09-01T17:18:58.354Z,1.20
2022-09-01T17:21:53.907Z,1.60
2022-09-01T17:24:46.426Z,1.50
2022-09-01T17:27:26.422Z,1.60
2022-09-01T17:29:55.452Z,2.20
2022-09-01T17:32:48.596Z,1.60
2022-09-01T17:35:58.768Z,2.00
2022-09-01T17:39:01.063Z,1.90
2022-09-01T17:41:55.982Z,1.83
2022-09-01T17:44:56.365Z,1.87
2022-09-01T17:47:49.584Z,2.30
2022-09-01T17:50:41.769Z,1.90
2022-09-01T17:53:26.002Z,1.93
2022-09-01T17:56:42.631Z,2.20
2022-09-01T17:59:34.021Z,2.20
2022-09-01T18:02:46.121Z,2.80
2022-09-01T18:05:15.911Z,2.50
2022-09-01T18:08:28.116Z,2.63
2022-09-01T18:11:01.179Z,2.60
2022-09-01T18:14:08.121Z,2.57
2022-09-01T18:17:08.302Z,2.53
2022-09-01T18:19:40.776Z,2.70
2022-09-01T18:22:15.445Z,2.83
2022-09-01T18:25:07.732Z,3.10
2022-09-01T18:27:35.920Z,2.70
2022-09-01T18:30:03.077Z,2.70
2022-09-01T18:33:27.870Z,2.77
2022-09-01T18:36:09.217Z,3.70
2022-09-01T18:39:03.402Z,2.97
2022-09-01T18:42:14.221Z,2.70
2022-09-01T18:45:13.703Z,3.10
2022-09-01T18:48:09.324Z,3.40
2022-09-01T18:50:53.687Z,3.17
2022-09-01T18:53:42.596Z,3.40
2022-09-01T18:56:47.610Z,3.50
2022-09-01T19:00:18.133Z,3.43
2022-09-01T19:03:15.229Z,3.03
2022-09-01T19:06:24.285Z,3.47
2022-09-01T19:09:29.800Z,3.13
2022-09-01T19:12:26.220Z,3.43
2022-09-01T19:15:20.740Z,3.10
2022-09-01T19:18:23.182Z,3.80
2022-09-01T19:21:05.687Z,3.93
2022-09-01T19:24:17.115Z,3.70
2022-09-01T19:26:50.815Z,3.07
2022-09-01T19:29:28.767Z,3.60
2022-09-01T19:32:02.417Z,3.60
2022-09-01T19:34:39.465Z,3.83
2022-09-01T19:37:07.901Z,3.40
2022-09-01T19:39:39.982Z,4.13
2022-09-01T19:42:33.884Z,2.93
2022-09-01T19:45:29.278Z,3.50
2022-09-01T19:48:23.112Z,3.97
2022-09-01T19:51:49.235Z,4.00
2022-09-01T19:54:37.295Z,4.10
2022-09-01T19:57:18.627Z,3.87
2022-09-01T20:00:11.312Z,3.80
2022-09-01T20:02:46.459Z,4.10
2022-09-01T20:05:37.549Z,3.60
2022-09-01T20:08:18.780Z,4.20
2022-09-01T20:11:20.357Z,3.83
2022-09-01T20:14:23.109Z,4.10
2022-09-01T20:16:53.344Z,3.93
2022-09-01T20:19:41.393Z,4.10
2022-09-01T20:22:50.275Z,4.20
2022-09-01T20:25:20.891Z,4.30
2022-09-01T20:28:07.265Z,4.37
2022-09-01T20:30:46.569Z,4.30
2022-09-01T20:33:35.255Z,4.53
2022-09-01T20:36:28.405Z,4.67
2022-09-01T20:39:21.740Z,4.40
2022-09-01T20:42:19.829Z,4.33
2022-09-01T20:44:59.222Z,4.07
2022-09-01T20:47:29.110Z,4.37
2022-09-01T20:49:59.542Z,4.07
2022-09-01T20:53:03.639Z,4.73
2022-09-01T20:56:22.929Z,4.00
2022-09-01T20:59:06.920Z,3.90
2022-09-01T21:02:23.251Z,4.47
2022-09-01T21:05:32.267Z,4.00
2022-09-01T21:08:34.697Z,4.30
2022-09-01T21:11:38.182Z,3.93
2022-09-01T21:14:52.928Z,3.97
2022-09-01T21:17:39.337Z,4.50
2022-09-01T21:20:55.824Z,4.53
2022-09-01T21:23:23.378Z,4.20
2022-09-01T21:25:50.522Z,4.50
2022-09-01T21:28:21.478Z,4.23
2022-09-01T21:30:54.165Z,4.17
2022-09-01T21:33:22.429Z,4.10
2022-09-01T21:35:50.485Z,3.97
2022-09-01T21:38:17.995Z,4.77
2022-09-01T21:40:45.678Z,4.30
2022-09-01T21:43:23.958Z,4.17
2022-09-01T21:45:51.096Z,4.33
2022-09-01T21:48:18.104Z,4.00
2022-09-01T21:50:46.466Z,4.13
2022-09-01T21:53:14.101Z,4.50
2022-09-01T21:55:41.860Z,3.87
2022-09-01T21:58:09.521Z,4.27
2022-09-01T22:00:40.509Z,4.73
2022-09-01T22:03:08.443Z,3.93
2022-09-01T22:05:41.275Z,4.73
2022-09-01T22:08:12.442Z,4.80
2022-09-01T22:10:49.517Z,4.33
2022-09-01T22:13:17.855Z,4.20
2022-09-01T22:15:48.756Z,5.10
2022-09-01T22:18:18.421Z,4.70
2022-09-01T22:20:46.184Z,4.67
2022-09-01T22:23:14.098Z,5.00
2022-09-01T22:25:44.160Z,5.20
2022-09-01T22:28:12.350Z,4.77
2022-09-01T22:30:48.221Z,5.77
2022-09-01T22:33:17.369Z,5.40
2022-09-01T22:35:47.185Z,6.20
2022-09-01T22:38:14.968Z,5.17
2022-09-01T22:41:08.426Z,5.77
2022-09-01T22:43:35.515Z,5.60
2022-09-01T22:46:06.396Z,5.57
2022-09-01T22:48:33.449Z,5.33
2022-09-01T22:51:07.261Z,6.10
2022-09-01T22:53:35.897Z,5.63
2022-09-01T22:56:09.320Z,5.33
2022-09-01T22:58:36.515Z,5.27
2022-09-01T23:01:03.976Z,5.33
2022-09-01T23:03:31.086Z,6.10
2022-09-01T23:06:10.079Z,6.40
2022-09-01T23:08:37.565Z,6.27
2022-09-01T23:11:05.870Z,6.10
2022-09-01T23:13:34.285Z,6.00
2022-09-01T23:16:02.529Z,6.60
2022-09-01T23:18:32.598Z,5.83
2022-09-01T23:21:01.190Z,6.83
2022-09-01T23:23:28.681Z,6.37
2022-09-01T23:25:56.144Z,6.70
2022-09-01T23:28:23.540Z,6.10
2022-09-01T23:30:51.047Z,6.03
2022-09-01T23:33:19.790Z,5.90
2022-09-01T23:35:50.039Z,6.57
2022-09-01T23:38:18.916Z,6.70
2022-09-01T23:40:48.589Z,7.43
2022-09-01T23:43:18.815Z,7.20
2022-09-01T23:45:52.028Z,7.13
2022-09-01T23:48:19.922Z,7.67
2022-09-01T23:50:53.752Z,7.40
2022-09-01T23:53:26.005Z,7.27
2022-09-01T23:55:56.125Z,6.97
2022-09-01T23:58:24.905Z,6.57
